Terminal Aerodrome Forecast
Issued by NWS

Home | Current Version | Previous Version | Text Only | Print | Product List | Glossary On
Versions: 1 2 3 4 5 6 7 8 9 10 11 12 13 14 15 16 17 18 19 20 21 22 23 24 25 26 27 28 29 30 31 32 33 34 35 36 37 38 39 40 41 42 43 44 45 46 47 48 49 50
000
FTUS46 KEKA 011148
TAFACV
TAF
KACV 011148Z 0112/0212 08004KT P6SM FEW030 SCT250
     FM011700 32008KT P6SM SCT250
     FM011900 33012G23KT P6SM FEW050 SCT250
     FM012200 34020G26KT P6SM FEW040 SCT250
     FM020400 35010G18KT P6SM SKC
     FM020600 02006KT P6SM SCT250=

USA.gov is the U.S. government's official web portal to all federal, state and local government web resources and services.